Time;durP1;ratioP1;P1;durP2;ratioP2;P2;SDS_P1;SDS_P2;PMS_P1;PMS_P2;Temp;Humidity;BMP_temperature;BMP_pressure;BME280_temperature;BME280_humidity;BME280_pressure;Samples;Min_cycle;Max_cycle;Signal;HPM_P1;HPM_P2
2023/10/08 00:01:55;;;;;;;12.75;3.30;;;;;;;17.11;85.15;101979.91;5043363;28;20112;-66
2023/10/08 00:04:21;;;;;;;10.00;4.05;;;;;;;17.07;85.73;101979.44;5027176;28;20163;-66
2023/10/08 00:06:47;;;;;;;11.77;3.60;;;;;;;17.11;85.39;101985.94;5023548;28;20457;-66
2023/10/08 00:09:14;;;;;;;10.30;3.78;;;;;;;17.07;85.69;101995.16;5040143;28;20051;-66
2023/10/08 00:11:40;;;;;;;11.00;3.85;;;;;;;17.03;85.64;101995.66;5043551;28;20046;-66
2023/10/08 00:14:10;;;;;;;9.32;3.83;;;;;;;17.02;85.73;102000.06;5011887;28;20047;-66
2023/10/08 00:16:39;;;;;;;12.55;3.63;;;;;;;16.97;86.06;102005.03;5030217;28;20033;-65
2023/10/08 00:19:08;;;;;;;9.70;3.83;;;;;;;16.90;86.67;102011.91;5042183;28;20041;-66
2023/10/08 00:21:36;;;;;;;11.15;3.60;;;;;;;16.90;86.22;102010.09;5043575;28;20031;-66
2023/10/08 00:24:06;;;;;;;9.38;3.60;;;;;;;16.86;86.56;102011.44;5024395;28;20112;-66
2023/10/08 00:26:31;;;;;;;9.27;3.08;;;;;;;16.90;86.45;102004.06;5029281;28;20483;-66
2023/10/08 00:29:06;;;;;;;8.10;3.55;;;;;;;16.80;87.31;102003.38;5042365;28;20567;-66
2023/10/08 00:31:37;;;;;;;8.88;3.33;;;;;;;16.78;87.44;102000.94;5005571;28;20191;-65
2023/10/08 00:34:05;;;;;;;8.30;3.25;;;;;;;16.85;86.89;102001.13;5010038;28;20044;-65
2023/10/08 00:36:31;;;;;;;8.45;3.75;;;;;;;16.79;87.49;102005.19;5042755;28;21165;-66
2023/10/08 00:39:00;;;;;;;9.90;3.67;;;;;;;16.80;86.80;102004.22;5024424;28;20044;-66
2023/10/08 00:41:31;;;;;;;8.50;3.47;;;;;;;16.71;87.56;102005.22;5041459;28;20098;-66
2023/10/08 00:43:59;;;;;;;11.80;3.78;;;;;;;16.68;87.83;102001.13;5039007;28;20060;-66
2023/10/08 00:46:30;;;;;;;11.35;3.45;;;;;;;16.76;87.27;102005.50;5022639;28;20082;-66
2023/10/08 00:48:58;;;;;;;8.00;3.78;;;;;;;16.71;87.23;102010.47;5022049;28;20033;-66
2023/10/08 00:51:27;;;;;;;8.68;3.33;;;;;;;16.65;87.51;102024.19;5040883;28;21308;-66
2023/10/08 00:53:57;;;;;;;10.18;3.53;;;;;;;16.60;87.62;102022.09;5024775;28;20051;-65
2023/10/08 00:56:45;;;;;;;11.05;3.80;;;;;;;16.67;87.42;102004.75;5028109;28;20086;-66
2023/10/08 00:59:14;;;;;;;15.15;4.65;;;;;;;16.60;87.39;102006.38;5007289;28;20691;-65
2023/10/08 01:01:39;;;;;;;12.57;3.92;;;;;;;16.50;88.16;102003.09;5023172;28;20025;-65
2023/10/08 01:04:11;;;;;;;9.25;3.83;;;;;;;16.53;88.00;102006.22;5008658;28;20036;-66
2023/10/08 01:06:39;;;;;;;10.88;3.60;;;;;;;16.50;87.79;102011.81;5025380;28;20161;-66
2023/10/08 01:09:18;;;;;;;11.00;4.35;;;;;;;16.43;88.38;102023.09;5041999;28;20033;-66
2023/10/08 01:11:49;;;;;;;12.90;4.30;;;;;;;16.40;88.72;102020.81;5025959;28;20643;-65
2023/10/08 01:14:17;;;;;;;10.32;3.47;;;;;;;16.37;88.82;102010.66;5043511;28;20041;-66
2023/10/08 01:16:46;;;;;;;9.73;4.07;;;;;;;16.37;88.89;102006.25;5045056;28;20053;-66
2023/10/08 01:19:19;;;;;;;8.05;3.53;;;;;;;16.34;88.97;102010.00;5026074;28;20515;-66
2023/10/08 01:21:45;;;;;;;8.35;3.38;;;;;;;16.21;89.26;102011.50;5021411;28;20041;-65
2023/10/08 01:24:16;;;;;;;9.38;3.95;;;;;;;16.14;89.92;102020.00;5026450;28;20036;-66
2023/10/08 01:26:42;;;;;;;9.57;3.80;;;;;;;16.13;89.94;102025.38;5040917;28;20055;-66
2023/10/08 01:29:19;;;;;;;11.85;3.78;;;;;;;16.11;89.83;102036.00;5024734;28;20472;-65
2023/10/08 01:31:53;;;;;;;10.55;4.05;;;;;;;16.04;90.14;102024.56;5009407;28;20041;-66
2023/10/08 01:34:18;;;;;;;10.25;3.30;;;;;;;16.04;90.21;102019.31;5005152;28;20064;-66
2023/10/08 01:36:44;;;;;;;14.10;4.05;;;;;;;16.07;89.81;102023.44;5031536;28;20382;-66
2023/10/08 01:39:15;;;;;;;7.72;3.83;;;;;;;16.01;90.16;102032.75;5010020;28;20044;-66
2023/10/08 01:41:45;;;;;;;13.90;4.07;;;;;;;15.98;90.16;102030.44;5013753;28;20041;-65
2023/10/08 01:44:11;;;;;;;10.77;3.88;;;;;;;15.94;90.26;102021.28;5043679;28;20079;-65
2023/10/08 01:46:40;;;;;;;8.70;3.70;;;;;;;15.91;90.27;102017.19;5016366;28;20051;-65
2023/10/08 01:49:13;;;;;;;12.02;3.72;;;;;;;15.82;90.75;102012.91;5029170;28;20451;-65
2023/10/08 01:51:44;;;;;;;8.70;3.60;;;;;;;15.73;90.73;102009.50;5032005;28;20494;-65
2023/10/08 01:54:11;;;;;;;12.88;4.20;;;;;;;15.81;90.30;102007.88;5032401;28;20033;-66
2023/10/08 01:56:41;;;;;;;7.63;3.55;;;;;;;15.79;89.98;102009.81;5046477;28;20037;-66
2023/10/08 01:59:11;;;;;;;12.82;3.80;;;;;;;15.70;90.21;102016.81;5023405;28;20530;-66
2023/10/08 02:01:38;;;;;;;8.77;3.67;;;;;;;15.67;90.22;102017.09;5013813;28;20048;-66
2023/10/08 02:04:07;;;;;;;13.65;3.90;;;;;;;15.63;90.45;102024.44;5011088;28;20032;-65
2023/10/08 02:06:34;;;;;;;11.20;4.15;;;;;;;15.63;90.39;102019.22;5028830;28;20033;-66
2023/10/08 02:09:05;;;;;;;14.05;4.30;;;;;;;15.60;90.24;102019.56;5028865;28;20037;-65
2023/10/08 02:11:32;;;;;;;8.93;3.60;;;;;;;15.62;90.07;102008.94;5028934;28;20075;-65
2023/10/08 02:13:58;;;;;;;7.88;3.53;;;;;;;15.65;89.67;102009.44;5032659;28;20044;-66
2023/10/08 02:16:23;;;;;;;9.45;3.45;;;;;;;15.68;89.72;102009.09;5015971;28;20526;-65
2023/10/08 02:18:51;;;;;;;11.38;3.97;;;;;;;15.62;90.28;102001.91;5029802;28;20040;-65
2023/10/08 02:21:16;;;;;;;7.30;3.63;;;;;;;15.57;90.49;102005.00;5028023;28;20045;-65
2023/10/08 02:23:43;;;;;;;11.63;4.05;;;;;;;15.68;90.05;102013.53;5026003;28;20036;-66
2023/10/08 02:26:09;;;;;;;7.80;3.47;;;;;;;15.60;90.73;102011.72;5048440;28;20041;-65
2023/10/08 02:28:38;;;;;;;12.48;3.83;;;;;;;15.57;90.93;102012.03;5025616;28;20064;-65
2023/10/08 02:31:04;;;;;;;9.45;3.72;;;;;;;15.69;89.76;101997.69;5046605;28;20589;-65
2023/10/08 02:33:30;;;;;;;8.15;3.75;;;;;;;15.57;90.23;102017.25;5024138;28;20056;-65
2023/10/08 02:35:55;;;;;;;7.47;3.67;;;;;;;15.57;90.43;102006.78;5041365;28;20037;-66
2023/10/08 02:38:21;;;;;;;12.10;4.07;;;;;;;15.77;89.35;101992.50;5010258;28;20033;-65
2023/10/08 02:40:47;;;;;;;9.98;3.30;;;;;;;15.78;88.77;102009.00;5028383;28;20090;-65
2023/10/08 02:43:15;;;;;;;9.35;4.10;;;;;;;15.58;89.73;102019.72;5023598;28;20052;-66
2023/10/08 02:45:42;;;;;;;10.90;3.92;;;;;;;15.60;89.96;102019.56;5043437;28;20103;-65
2023/10/08 02:48:11;;;;;;;10.75;4.13;;;;;;;15.56;89.71;102026.91;5024884;28;20033;-65
2023/10/08 02:50:39;;;;;;;8.32;3.58;;;;;;;15.54;90.07;102034.09;5046079;28;20040;-66
2023/10/08 02:53:10;;;;;;;15.10;4.07;;;;;;;15.47;90.52;102038.31;5006418;28;20139;-65
2023/10/08 02:55:44;;;;;;;8.80;3.42;;;;;;;15.46;90.41;102031.41;5023121;28;20028;-66
2023/10/08 02:58:18;;;;;;;12.43;4.35;;;;;;;15.41;90.86;102041.56;5026402;28;20082;-65
2023/10/08 03:00:49;;;;;;;8.07;3.90;;;;;;;15.45;90.26;102049.91;5006610;28;20060;-65
2023/10/08 03:03:24;;;;;;;10.25;3.85;;;;;;;15.42;90.33;102045.78;5031330;28;20400;-66
2023/10/08 03:05:52;;;;;;;6.63;3.13;;;;;;;15.45;90.29;102050.72;5046657;28;20032;-65
2023/10/08 03:08:22;;;;;;;13.25;3.60;;;;;;;15.45;90.63;102050.72;5030850;28;20040;-65
2023/10/08 03:11:02;;;;;;;9.48;3.53;;;;;;;15.42;90.42;102047.59;5012336;28;20106;-66
2023/10/08 03:13:28;;;;;;;8.30;3.33;;;;;;;15.38;90.54;102049.69;5009739;28;20045;-66
2023/10/08 03:16:07;;;;;;;11.95;3.67;;;;;;;15.32;89.93;102053.75;5025270;28;20427;-66
2023/10/08 03:18:36;;;;;;;11.55;4.28;;;;;;;15.31;90.06;102054.75;5025445;28;20651;-68
2023/10/08 03:21:20;;;;;;;8.50;3.63;;;;;;;15.28;89.79;102049.81;5044764;28;20041;-66
2023/10/08 03:23:47;;;;;;;9.07;3.78;;;;;;;15.22;90.04;102044.41;5022653;28;20822;-65
2023/10/08 03:29:15;;;;;;;10.43;4.20;;;;;;;15.27;90.33;102050.78;4925210;29;20051;-66
2023/10/08 03:34:19;;;;;;;12.32;3.83;;;;;;;15.31;89.93;102052.13;5026788;28;20090;-66
2023/10/08 03:36:46;;;;;;;9.52;3.78;;;;;;;15.33;88.99;102051.94;5042999;28;20094;-66
2023/10/08 03:39:15;;;;;;;12.07;4.07;;;;;;;15.32;88.79;102061.59;5043031;28;20041;-65
2023/10/08 03:41:41;;;;;;;11.57;3.72;;;;;;;15.26;89.22;102049.16;5046141;28;20045;-65
2023/10/08 03:44:16;;;;;;;9.80;3.80;;;;;;;15.25;89.65;102039.69;5041359;28;20037;-65
2023/10/08 03:46:42;;;;;;;12.68;3.75;;;;;;;15.23;89.47;102043.44;5040475;28;20058;-65
2023/10/08 03:49:14;;;;;;;15.00;3.95;;;;;;;15.30;89.05;102042.66;5042550;28;20032;-65
2023/10/08 03:51:41;;;;;;;10.30;3.80;;;;;;;15.21;89.18;102054.03;5028959;28;20507;-66
2023/10/08 03:56:36;;;;;;;8.65;3.85;;;;;;;15.17;89.28;102050.09;5028264;28;20063;-66
2023/10/08 03:59:20;;;;;;;11.82;3.58;;;;;;;15.14;89.36;102058.25;5025224;28;20060;-65
2023/10/08 04:01:49;;;;;;;12.52;3.95;;;;;;;15.18;89.18;102047.34;5041492;28;20479;-65
2023/10/08 04:04:15;;;;;;;11.80;4.20;;;;;;;15.12;88.73;102058.38;5028841;28;20712;-65
2023/10/08 04:06:51;;;;;;;10.00;3.80;;;;;;;15.18;88.75;102046.50;5042092;28;20033;-66
2023/10/08 04:11:56;;;;;;;12.80;4.35;;;;;;;15.19;88.19;102054.19;5026249;28;20079;-65
2023/10/08 04:14:25;;;;;;;11.10;3.95;;;;;;;15.11;88.37;102041.09;5040910;28;20132;-65
2023/10/08 04:16:52;;;;;;;10.82;3.60;;;;;;;15.05;89.15;102041.72;5041944;28;20032;-66
2023/10/08 04:19:23;;;;;;;10.10;4.57;;;;;;;15.04;88.91;102028.81;5043024;28;20068;-65
2023/10/08 04:21:53;;;;;;;11.30;3.55;;;;;;;15.02;88.77;102033.38;5046393;28;20371;-65
2023/10/08 04:24:28;;;;;;;13.00;3.08;;;;;;;14.99;88.71;102039.72;5044810;28;20052;-65
2023/10/08 04:26:56;;;;;;;8.98;3.30;;;;;;;14.97;89.08;102067.78;5024420;28;20032;-65
2023/10/08 04:29:22;;;;;;;10.27;3.50;;;;;;;14.96;89.02;102076.59;5038942;28;20033;-66
2023/10/08 04:31:58;;;;;;;10.63;3.72;;;;;;;15.03;88.50;102084.63;5005186;28;20652;-66
2023/10/08 04:34:28;;;;;;;9.48;3.15;;;;;;;14.98;88.38;102079.88;5016989;28;20056;-66
2023/10/08 04:36:57;;;;;;;7.07;3.55;;;;;;;14.93;88.47;102077.72;5010853;28;20507;-65
2023/10/08 04:39:31;;;;;;;10.73;3.72;;;;;;;14.88;89.04;102072.16;5043997;28;20036;-65
2023/10/08 04:42:09;;;;;;;11.35;3.92;;;;;;;14.91;88.88;102071.81;5046630;28;20037;-65
2023/10/08 04:44:38;;;;;;;6.95;3.15;;;;;;;14.85;89.38;102062.00;5040153;28;20063;-65
2023/10/08 04:47:08;;;;;;;10.60;3.42;;;;;;;14.83;89.49;102056.09;5025620;28;20410;-66
2023/10/08 04:49:37;;;;;;;7.38;3.22;;;;;;;14.83;89.20;102063.94;5042657;28;20090;-65
2023/10/08 04:52:18;;;;;;;10.43;3.80;;;;;;;14.77;89.31;102072.41;5040537;28;20120;-65
2023/10/08 04:54:51;;;;;;;10.80;3.97;;;;;;;14.78;89.52;102080.06;5042935;28;20115;-66
2023/10/08 04:57:18;;;;;;;13.27;3.60;;;;;;;14.86;89.19;102079.31;5028340;28;20033;-66
2023/10/08 04:59:44;;;;;;;12.57;3.85;;;;;;;14.82;89.40;102062.28;5042522;28;20511;-66
2023/10/08 05:02:19;;;;;;;13.30;3.75;;;;;;;14.83;89.46;102058.72;5024495;28;20102;-66
2023/10/08 05:05:21;;;;;;;10.35;4.20;;;;;;;14.87;89.24;102067.06;5021950;28;20041;-66
2023/10/08 05:20:30;;;;;;;9.95;3.45;;;;;;;14.74;89.75;102111.84;5046385;28;20041;-66
2023/10/08 05:23:05;;;;;;;16.33;3.60;;;;;;;14.71;90.40;102117.38;5030358;28;20103;-65
2023/10/08 05:25:40;;;;;;;8.45;3.72;;;;;;;14.69;90.39;102124.53;5041991;28;20115;-66
2023/10/08 05:28:24;;;;;;;11.68;4.22;;;;;;;14.63;91.13;102115.50;5026528;28;20043;-66
2023/10/08 05:31:11;;;;;;;11.50;3.63;;;;;;;14.59;91.51;102128.03;5013133;28;20047;-65
2023/10/08 05:36:51;;;;;;;13.10;4.15;;;;;;;14.62;91.48;102132.16;4965372;28;20042;-65
2023/10/08 05:39:40;;;;;;;7.38;3.40;;;;;;;14.58;91.53;102131.63;5022532;28;20052;-65
2023/10/08 05:42:31;;;;;;;9.57;3.55;;;;;;;14.56;91.45;102122.28;5046201;28;20386;-65
2023/10/08 05:55:33;;;;;;;11.43;4.72;;;;;;;14.51;92.10;102134.97;5050160;28;20041;-66
2023/10/08 06:01:04;;;;;;;13.70;4.65;;;;;;;14.53;92.03;102117.38;5043097;28;20044;-65
2023/10/08 06:03:37;;;;;;;12.68;4.18;;;;;;;14.49;91.91;102108.19;5043241;28;20096;-65
2023/10/08 06:06:22;;;;;;;9.18;3.95;;;;;;;14.52;92.22;102100.91;5016081;28;20040;-66
2023/10/08 06:09:04;;;;;;;12.82;5.03;;;;;;;14.58;91.70;102084.66;5032681;28;20036;-66
2023/10/08 06:11:56;;;;;;;12.52;3.80;;;;;;;14.53;92.14;102083.44;5033355;28;20041;-65
2023/10/08 06:17:33;;;;;;;13.70;4.05;;;;;;;14.60;92.07;102108.81;5025385;28;20059;-66
2023/10/08 06:20:16;;;;;;;8.80;4.35;;;;;;;14.58;91.95;102110.75;5027966;28;20048;-65
2023/10/08 06:22:42;;;;;;;11.97;5.03;;;;;;;14.52;91.96;102113.09;5046065;28;20037;-66
2023/10/08 06:25:18;;;;;;;9.93;4.32;;;;;;;14.48;92.62;102119.59;5043032;28;20471;-66
2023/10/08 06:27:47;;;;;;;10.88;4.18;;;;;;;14.52;92.82;102127.00;5025794;28;20052;-65
2023/10/08 06:30:16;;;;;;;8.13;3.60;;;;;;;14.52;93.32;102141.81;5031718;28;20067;-65
2023/10/08 06:32:45;;;;;;;11.63;3.83;;;;;;;14.53;93.43;102159.13;5023350;28;20029;-65
2023/10/08 06:35:17;;;;;;;9.45;3.80;;;;;;;14.52;93.06;102142.66;5044353;28;20052;-65
2023/10/08 06:37:45;;;;;;;13.95;3.92;;;;;;;14.55;92.92;102142.34;5041286;28;20153;-66
2023/10/08 06:43:24;;;;;;;11.75;3.70;;;;;;;14.57;93.48;102123.94;5008590;28;20436;-66
2023/10/08 06:45:53;;;;;;;9.32;4.05;;;;;;;14.60;93.44;102116.66;5044201;28;20107;-65
2023/10/08 06:48:21;;;;;;;11.98;5.45;;;;;;;14.66;92.83;102124.84;5041815;28;20048;-66
2023/10/08 06:50:56;;;;;;;11.15;5.55;;;;;;;14.65;93.47;102131.03;5025951;28;20079;-65
2023/10/08 06:53:22;;;;;;;11.60;4.20;;;;;;;14.66;93.70;102136.09;5023743;28;20041;-65
2023/10/08 06:55:56;;;;;;;13.05;3.95;;;;;;;14.66;93.78;102124.84;5046529;28;20040;-66
2023/10/08 06:58:25;;;;;;;12.30;4.38;;;;;;;14.72;93.66;102135.50;5046153;28;20111;-65
2023/10/08 07:00:52;;;;;;;12.40;4.50;;;;;;;14.71;93.94;102139.09;5040214;28;20039;-65
2023/10/08 07:03:18;;;;;;;15.93;4.25;;;;;;;14.76;93.92;102149.88;5038901;28;20045;-65
2023/10/08 07:06:00;;;;;;;8.85;3.90;;;;;;;14.78;94.26;102160.19;5024926;28;20079;-66
2023/10/08 07:08:35;;;;;;;9.18;4.18;;;;;;;14.82;94.22;102148.47;5042746;28;20132;-65
2023/10/08 07:11:06;;;;;;;10.18;3.47;;;;;;;14.88;94.16;102152.25;5043150;28;20044;-65
2023/10/08 07:13:33;;;;;;;10.90;3.40;;;;;;;14.89;94.57;102144.28;5043892;28;20045;-66
2023/10/08 07:16:00;;;;;;;10.85;4.03;;;;;;;14.92;94.30;102159.66;5046126;28;21465;-65
2023/10/08 07:18:25;;;;;;;10.10;4.18;;;;;;;14.93;93.92;102168.31;5026371;28;20047;-65
2023/10/08 07:20:53;;;;;;;8.68;3.42;;;;;;;15.02;93.34;102167.38;5045783;28;20024;-66
2023/10/08 07:23:27;;;;;;;10.70;4.20;;;;;;;15.32;91.99;102165.31;5038503;28;20048;-66
2023/10/08 07:26:10;;;;;;;9.38;4.22;;;;;;;15.44;91.43;102158.84;5045143;28;20115;-65
2023/10/08 07:28:43;;;;;;;10.48;4.00;;;;;;;15.42;91.25;102167.81;5041279;28;20479;-65
2023/10/08 07:31:15;;;;;;;;;;;;;;;15.44;91.91;102178.94;5023058;28;20479;-65
2023/10/08 07:33:43;;;;;;;11.70;4.03;;;;;;;15.44;91.78;102192.00;5027228;28;20793;-66
2023/10/08 07:36:18;;;;;;;7.97;3.63;;;;;;;15.48;91.69;102194.16;5043786;28;20036;-65
2023/10/08 07:38:44;;;;;;;11.50;4.68;;;;;;;15.57;91.67;102200.25;5024725;28;20045;-66
2023/10/08 07:41:14;;;;;;;13.63;4.50;;;;;;;15.56;91.43;102199.44;5027196;28;20044;-66
2023/10/08 07:43:44;;;;;;;11.30;4.13;;;;;;;15.52;91.27;102195.50;5043443;28;20033;-66
2023/10/08 07:46:15;;;;;;;13.23;4.32;;;;;;;15.47;91.63;102192.50;5023711;28;20383;-65
2023/10/08 07:48:43;;;;;;;15.50;4.20;;;;;;;15.47;91.79;102189.91;5042444;28;20115;-66
2023/10/08 07:51:08;;;;;;;10.40;4.60;;;;;;;15.48;91.69;102196.78;5009655;28;20517;-65
2023/10/08 07:53:41;;;;;;;13.80;4.72;;;;;;;15.50;92.05;102194.00;5026061;28;20372;-66
2023/10/08 07:56:08;;;;;;;13.63;5.13;;;;;;;15.51;91.96;102195.63;5023275;28;20202;-65
2023/10/08 07:58:37;;;;;;;11.68;4.43;;;;;;;15.51;92.07;102203.47;5027162;28;20414;-66
2023/10/08 08:01:06;;;;;;;13.18;4.97;;;;;;;15.51;92.25;102201.69;5022458;28;20763;-66
2023/10/08 08:03:36;;;;;;;11.50;4.45;;;;;;;15.64;92.41;102201.28;5040919;28;20030;-65
2023/10/08 08:06:06;;;;;;;15.40;4.18;;;;;;;15.58;92.12;102207.94;5023466;28;20029;-65
2023/10/08 08:08:33;;;;;;;9.82;4.55;;;;;;;15.55;92.46;102204.81;5029304;28;20043;-66
2023/10/08 08:11:05;;;;;;;14.02;5.72;;;;;;;15.56;92.13;102207.28;5044603;28;20128;-66
2023/10/08 08:13:33;;;;;;;13.40;4.72;;;;;;;15.61;92.10;102192.91;5025591;28;20065;-66
2023/10/08 08:16:09;;;;;;;17.10;5.20;;;;;;;15.60;91.35;102202.56;5026294;28;20045;-66
2023/10/08 08:18:37;;;;;;;12.23;3.95;;;;;;;15.67;91.49;102206.19;5024181;28;20029;-66
2023/10/08 08:21:02;;;;;;;12.85;4.70;;;;;;;15.76;91.44;102218.38;5046459;28;20029;-65
2023/10/08 08:23:31;;;;;;;14.02;4.63;;;;;;;15.87;90.74;102225.09;5025412;28;20130;-66
2023/10/08 08:26:07;;;;;;;15.55;5.20;;;;;;;15.85;90.81;102228.88;5046620;28;20090;-66
2023/10/08 08:28:33;;;;;;;15.80;5.30;;;;;;;15.88;90.52;102231.16;5041987;28;20492;-65
2023/10/08 08:31:13;;;;;;;14.70;4.90;;;;;;;15.91;90.51;102238.69;5027894;28;20033;-66
2023/10/08 08:33:53;;;;;;;15.68;6.15;;;;;;;15.94;90.26;102243.63;5040639;28;20055;-66
2023/10/08 08:36:27;;;;;;;12.48;5.22;;;;;;;15.99;90.28;102243.94;5025389;28;20044;-66
2023/10/08 08:38:53;;;;;;;18.48;6.35;;;;;;;15.99;90.37;102246.56;5007324;28;20044;-66
2023/10/08 08:41:20;;;;;;;17.27;4.95;;;;;;;16.10;90.26;102246.28;5040623;28;20731;-66
2023/10/08 08:43:56;;;;;;;14.43;4.82;;;;;;;16.28;90.37;102234.94;5014008;28;20059;-65
2023/10/08 08:46:37;;;;;;;21.40;4.93;;;;;;;16.51;89.40;102232.53;5035096;28;20033;-65
2023/10/08 08:49:04;;;;;;;12.38;5.25;;;;;;;16.84;87.10;102237.84;5039069;28;20040;-66
2023/10/08 08:51:30;;;;;;;14.80;5.50;;;;;;;17.05;86.18;102232.13;5048951;28;20032;-66
2023/10/08 08:53:56;;;;;;;14.55;5.15;;;;;;;17.35;85.96;102229.78;5015684;28;20088;-66
2023/10/08 08:56:25;;;;;;;14.40;5.22;;;;;;;17.58;84.27;102222.88;5032615;28;20099;-69
2023/10/08 08:58:51;;;;;;;21.15;6.18;;;;;;;17.70;82.83;102221.50;5031840;28;20037;-65
2023/10/08 09:01:19;;;;;;;21.38;6.15;;;;;;;18.02;81.21;102234.72;5045867;28;20087;-66
2023/10/08 09:03:47;;;;;;;23.35;7.07;;;;;;;18.04;79.57;102233.56;5027261;28;20061;-66
2023/10/08 09:06:13;;;;;;;23.00;6.75;;;;;;;17.71;81.41;102235.47;5047536;28;20064;-66
2023/10/08 09:08:42;;;;;;;24.15;7.78;;;;;;;17.65;81.96;102247.44;5027099;28;20065;-66
2023/10/08 09:11:08;;;;;;;24.77;7.45;;;;;;;17.79;82.99;102239.88;5012183;28;20060;-66
2023/10/08 09:13:35;;;;;;;23.38;7.38;;;;;;;17.82;82.11;102242.97;5046632;28;20048;-66
2023/10/08 09:16:07;;;;;;;24.13;8.23;;;;;;;17.83;82.13;102249.03;5045205;28;20494;-66
2023/10/08 09:18:32;;;;;;;23.25;6.88;;;;;;;18.01;82.36;102261.97;5024819;28;20029;-66
2023/10/08 09:21:10;;;;;;;37.70;9.05;;;;;;;17.96;82.01;102259.84;5047072;28;20510;-66
2023/10/08 09:23:47;;;;;;;25.05;8.15;;;;;;;17.84;82.01;102261.19;5026834;28;20041;-66
2023/10/08 09:26:14;;;;;;;23.80;8.00;;;;;;;17.57;82.50;102268.44;5041539;28;20060;-66
2023/10/08 09:28:51;;;;;;;24.02;7.63;;;;;;;17.55;83.53;102269.59;5026539;28;20116;-66
2023/10/08 09:31:17;;;;;;;34.72;8.35;;;;;;;17.43;84.05;102264.69;5024060;28;20140;-66
2023/10/08 09:33:52;;;;;;;18.13;6.22;;;;;;;17.49;85.11;102261.41;5041606;28;20041;-66
2023/10/08 09:36:19;;;;;;;32.30;8.27;;;;;;;17.57;85.29;102273.69;5029729;28;21181;-66
2023/10/08 09:38:49;;;;;;;19.23;6.90;;;;;;;17.66;85.32;102269.25;5044136;28;20044;-66
2023/10/08 09:41:14;;;;;;;32.72;9.48;;;;;;;17.71;85.15;102275.63;5028917;28;21268;-66
2023/10/08 09:43:41;;;;;;;29.33;10.00;;;;;;;17.66;84.77;102283.16;5027633;28;20034;-66
2023/10/08 09:46:19;;;;;;;21.25;8.20;;;;;;;17.82;84.47;102277.09;5027794;28;20041;-66
2023/10/08 09:48:52;;;;;;;21.73;7.47;;;;;;;17.78;84.83;102280.19;5040728;28;20037;-66
2023/10/08 09:51:18;;;;;;;30.38;8.70;;;;;;;17.73;84.21;102278.09;5044330;28;20091;-66
2023/10/08 09:54:03;;;;;;;27.20;8.18;;;;;;;17.67;84.69;102287.44;5046024;28;20036;-66
2023/10/08 09:56:31;;;;;;;24.70;8.15;;;;;;;17.92;84.58;102290.03;5028893;28;20056;-66
2023/10/08 09:58:59;;;;;;;23.13;8.45;;;;;;;17.79;84.11;102285.28;5025566;28;20040;-66
2023/10/08 10:01:26;;;;;;;28.10;9.07;;;;;;;17.73;83.53;102272.84;5028812;28;20041;-66
2023/10/08 10:03:52;;;;;;;24.92;8.82;;;;;;;17.69;83.81;102269.72;5030398;28;20041;-66
2023/10/08 10:06:18;;;;;;;29.30;9.43;;;;;;;17.74;84.85;102263.16;5038396;28;20044;-66
2023/10/08 10:08:45;;;;;;;29.42;9.82;;;;;;;17.78;84.92;102269.69;5032591;28;20038;-66
2023/10/08 10:11:11;;;;;;;34.22;10.13;;;;;;;17.78;85.12;102264.44;5045611;28;20403;-66
2023/10/08 10:13:47;;;;;;;21.02;9.15;;;;;;;17.81;84.92;102270.19;5047542;28;20065;-66
2023/10/08 10:16:17;;;;;;;30.38;9.88;;;;;;;17.66;85.69;102272.69;5044015;28;20037;-66
2023/10/08 10:18:46;;;;;;;34.65;9.73;;;;;;;17.69;86.25;102282.84;5034012;28;20226;-66
2023/10/08 10:21:15;;;;;;;32.00;11.32;;;;;;;17.74;85.94;102279.72;5048834;28;20036;-66
2023/10/08 10:23:50;;;;;;;23.20;9.52;;;;;;;17.84;86.08;102280.38;5029968;28;20036;-66
2023/10/08 10:26:33;;;;;;;30.27;11.68;;;;;;;17.93;85.61;102272.47;5048659;28;20430;-66
2023/10/08 10:29:11;;;;;;;29.20;10.90;;;;;;;17.91;85.89;102272.66;5045738;28;20032;-66
2023/10/08 10:31:53;;;;;;;25.20;9.20;;;;;;;18.11;85.59;102265.19;5042623;28;20447;-67
2023/10/08 10:34:30;;;;;;;23.83;9.77;;;;;;;18.20;85.33;102273.88;5025530;28;20029;-66
2023/10/08 10:37:08;;;;;;;30.42;10.93;;;;;;;18.26;84.55;102266.13;5042888;28;20116;-66
2023/10/08 10:39:39;;;;;;;27.63;9.00;;;;;;;18.36;84.91;102268.53;5044656;28;20718;-66
2023/10/08 10:42:06;;;;;;;27.67;9.98;;;;;;;18.50;84.66;102267.00;5047483;28;20163;-66
2023/10/08 10:44:36;;;;;;;26.33;10.50;;;;;;;18.66;82.11;102268.69;5041302;28;20485;-66
2023/10/08 10:52:31;;;;;;;25.65;11.25;;;;;;;18.73;82.56;102274.88;5040247;28;20075;-66
2023/10/08 10:55:18;;;;;;;29.10;11.02;;;;;;;18.66;83.00;102280.00;5037992;28;20469;-67
2023/10/08 10:57:54;;;;;;;29.42;9.85;;;;;;;18.73;82.78;102289.84;5020166;28;20032;-66
2023/10/08 11:03:17;;;;;;;30.60;11.20;;;;;;;18.84;81.56;102277.13;5040670;28;20431;-66
2023/10/08 11:05:54;;;;;;;34.60;10.30;;;;;;;18.77;81.43;102273.53;5020833;28;20047;-66
2023/10/08 11:08:23;;;;;;;20.08;8.40;;;;;;;18.84;82.63;102268.44;5016898;28;20037;-66
2023/10/08 11:10:51;;;;;;;20.15;8.88;;;;;;;18.85;82.84;102265.66;5040053;28;20041;-66
2023/10/08 11:13:21;;;;;;;24.17;9.57;;;;;;;18.90;82.88;102257.22;5049588;28;20067;-66
2023/10/08 11:15:54;;;;;;;31.00;12.05;;;;;;;18.85;81.53;102255.13;5030490;28;20107;-66
2023/10/08 11:18:21;;;;;;;20.13;8.82;;;;;;;18.90;82.54;102259.84;5038048;28;20044;-66
2023/10/08 11:20:53;;;;;;;27.63;10.82;;;;;;;18.86;82.06;102262.00;5004763;28;20150;-66
2023/10/08 11:23:34;;;;;;;26.10;9.20;;;;;;;18.98;82.17;102261.59;5041497;28;20040;-66
2023/10/08 11:26:05;;;;;;;16.95;8.60;;;;;;;19.05;82.69;102265.16;5042976;28;20052;-66
2023/10/08 11:28:41;;;;;;;27.65;10.10;;;;;;;19.10;82.08;102269.88;5029731;28;20490;-66
2023/10/08 11:31:10;;;;;;;30.10;11.35;;;;;;;19.21;81.81;102265.03;5027452;28;20051;-66
2023/10/08 11:33:40;;;;;;;43.92;13.05;;;;;;;18.97;81.56;102267.88;5041469;28;20051;-66
2023/10/08 11:36:18;;;;;;;33.17;12.63;;;;;;;19.02;81.34;102262.88;5047684;28;20051;-66
2023/10/08 11:38:47;;;;;;;37.35;14.27;;;;;;;18.94;81.77;102273.47;5048100;28;20070;-67
2023/10/08 11:41:27;;;;;;;40.55;14.93;;;;;;;18.91;82.66;102266.75;5025359;28;20041;-66
2023/10/08 11:43:57;;;;;;;40.47;13.68;;;;;;;19.01;82.81;102263.88;5042798;28;20529;-66
2023/10/08 11:46:38;;;;;;;44.55;14.68;;;;;;;19.02;82.71;102262.88;5006692;28;20422;-66
2023/10/08 11:49:04;;;;;;;44.92;16.48;;;;;;;19.00;81.99;102254.34;5040045;28;20048;-66
2023/10/08 11:51:32;;;;;;;53.28;17.77;;;;;;;19.04;82.53;102253.84;5025762;28;20118;-66
2023/10/08 11:53:59;;;;;;;37.53;14.82;;;;;;;18.99;83.60;102258.81;5041443;28;20045;-66
2023/10/08 11:56:25;;;;;;;47.65;15.43;;;;;;;18.85;83.00;102252.50;5039802;28;20045;-66
2023/10/08 11:58:52;;;;;;;50.72;17.77;;;;;;;18.60;84.39;102249.19;5022189;28;20036;-66
2023/10/08 12:01:18;;;;;;;52.65;17.10;;;;;;;18.54;84.85;102242.00;5043428;28;20041;-66
2023/10/08 12:03:45;;;;;;;63.65;20.60;;;;;;;18.49;84.80;102239.88;5040777;28;20029;-66
2023/10/08 12:06:18;;;;;;;44.55;16.55;;;;;;;18.54;85.14;102252.50;5041405;28;20033;-66
2023/10/08 12:08:49;;;;;;;59.58;18.17;;;;;;;18.47;85.99;102241.88;5039461;28;20671;-66
2023/10/08 12:11:15;;;;;;;56.15;17.85;;;;;;;18.53;86.28;102248.25;5044718;28;20048;-66
2023/10/08 12:13:44;;;;;;;41.65;15.90;;;;;;;18.62;86.21;102243.75;5046686;28;20648;-66
2023/10/08 12:16:18;;;;;;;50.30;17.60;;;;;;;18.77;84.46;102231.50;5044355;28;20048;-66
2023/10/08 12:18:48;;;;;;;60.45;17.02;;;;;;;18.68;85.56;102246.53;5040971;28;20029;-66
2023/10/08 12:21:15;;;;;;;54.88;17.23;;;;;;;18.69;85.82;102236.81;5040848;28;20025;-66
2023/10/08 12:23:46;;;;;;;54.47;16.73;;;;;;;18.71;84.75;102234.03;5027142;28;20041;-66
2023/10/08 12:26:15;;;;;;;49.00;16.88;;;;;;;18.62;85.35;102231.44;5043321;28;20056;-66
2023/10/08 12:28:43;;;;;;;41.60;13.85;;;;;;;18.61;85.77;102226.34;5038008;28;20098;-66
2023/10/08 12:31:10;;;;;;;35.63;13.00;;;;;;;18.68;86.05;102224.66;5042512;28;20388;-66